Time;durP1;ratioP1;P1;durP2;ratioP2;P2;SDS_P1;SDS_P2;PMS_P1;PMS_P2;Temp;Humidity;BMP_temperature;BMP_pressure;BME280_temperature;BME280_humidity;BME280_pressure;Samples;Min_cycle;Max_cycle;Signal;HPM_P1;HPM_P2
2024/02/28 00:00:56;;;;;;;28.20;16.27;;;2.90;99.90;;;;;;5011979;28;21035;-61
2024/02/28 00:03:25;;;;;;;29.20;17.50;;;2.90;99.90;;;;;;5014637;28;20225;-61
2024/02/28 00:05:53;;;;;;;25.77;15.97;;;2.80;99.90;;;;;;5016421;28;20230;-61
2024/02/28 00:08:22;;;;;;;25.67;16.67;;;2.70;99.90;;;;;;4993796;28;20230;-61
2024/02/28 00:10:51;;;;;;;25.53;16.17;;;2.70;99.90;;;;;;5020450;28;20272;-61
2024/02/28 00:13:22;;;;;;;27.57;16.80;;;2.70;99.90;;;;;;5002283;28;20297;-61
2024/02/28 00:15:50;;;;;;;27.90;15.93;;;2.70;99.90;;;;;;5038589;28;20534;-61
2024/02/28 00:18:19;;;;;;;26.43;16.17;;;2.60;99.90;;;;;;5000379;28;20614;-61
2024/02/28 00:20:47;;;;;;;25.93;16.60;;;2.60;99.90;;;;;;4999458;28;20225;-61
2024/02/28 00:23:15;;;;;;;30.80;16.37;;;2.60;99.90;;;;;;4999256;28;20198;-62
2024/02/28 00:25:44;;;;;;;26.27;15.37;;;2.50;99.90;;;;;;5001021;28;20218;-61
2024/02/28 00:28:13;;;;;;;25.97;15.93;;;2.50;99.90;;;;;;4996366;28;20570;-61
2024/02/28 00:30:42;;;;;;;25.93;15.60;;;2.50;99.90;;;;;;4991127;28;20562;-62
2024/02/28 00:33:10;;;;;;;27.87;16.93;;;2.40;99.90;;;;;;4995331;28;20218;-60
2024/02/28 00:35:40;;;;;;;30.70;16.87;;;2.40;99.90;;;;;;4999573;28;20214;-61
2024/02/28 00:38:10;;;;;;;25.23;15.93;;;2.40;99.90;;;;;;4997519;28;20197;-61
2024/02/28 00:40:38;;;;;;;27.07;15.27;;;2.30;99.90;;;;;;4996876;28;20257;-61
2024/02/28 00:43:06;;;;;;;29.93;16.00;;;2.20;99.90;;;;;;4994361;28;20681;-61
2024/02/28 00:45:36;;;;;;;29.60;16.70;;;2.20;99.90;;;;;;4998768;28;20261;-61
2024/02/28 00:48:05;;;;;;;25.87;16.23;;;2.20;99.90;;;;;;4993686;28;20218;-61
2024/02/28 00:50:33;;;;;;;29.53;15.87;;;2.10;99.90;;;;;;4998825;28;20190;-61
2024/02/28 00:53:01;;;;;;;29.13;15.73;;;2.10;99.90;;;;;;5001429;28;20194;-61
2024/02/28 00:55:30;;;;;;;25.43;15.97;;;2.10;99.90;;;;;;4997389;28;20230;-61
2024/02/28 00:57:58;;;;;;;27.23;15.93;;;2.10;99.90;;;;;;4987169;28;21015;-61
2024/02/28 01:00:26;;;;;;;22.90;14.60;;;2.10;99.90;;;;;;4996827;28;20218;-61
2024/02/28 01:02:56;;;;;;;26.20;15.70;;;2.00;99.90;;;;;;4995081;28;20272;-61
2024/02/28 01:05:24;;;;;;;31.93;15.30;;;2.00;99.90;;;;;;5027453;28;20198;-61
2024/02/28 01:07:52;;;;;;;22.37;14.50;;;1.90;99.90;;;;;;4994488;28;20329;-61
2024/02/28 01:10:21;;;;;;;27.30;15.40;;;1.90;99.90;;;;;;4994713;28;20592;-60
2024/02/28 01:12:49;;;;;;;25.83;14.30;;;1.90;99.90;;;;;;4995411;28;20218;-61
2024/02/28 01:15:18;;;;;;;27.80;14.90;;;1.90;99.90;;;;;;4992845;28;20845;-60
2024/02/28 01:17:46;;;;;;;27.83;14.93;;;1.90;99.90;;;;;;4995406;28;20309;-60
2024/02/28 01:20:16;;;;;;;24.20;14.63;;;1.80;99.90;;;;;;4995019;28;20246;-60
2024/02/28 01:22:44;;;;;;;27.40;14.50;;;1.80;99.90;;;;;;4996112;28;20239;-61
2024/02/28 01:25:12;;;;;;;23.70;14.77;;;1.80;99.90;;;;;;4995884;28;20244;-61
2024/02/28 01:27:41;;;;;;;24.67;14.57;;;1.70;99.90;;;;;;4992668;28;20229;-61
2024/02/28 01:30:09;;;;;;;25.27;13.97;;;1.70;99.90;;;;;;5000936;28;20214;-61
2024/02/28 01:32:38;;;;;;;27.17;14.10;;;1.70;99.90;;;;;;5012719;28;20194;-62
2024/02/28 01:35:09;;;;;;;26.00;14.57;;;1.70;99.90;;;;;;5014947;28;20185;-61
2024/02/28 01:37:38;;;;;;;24.07;14.37;;;1.60;99.90;;;;;;5019489;28;20221;-61
2024/02/28 01:40:08;;;;;;;26.17;14.87;;;1.70;99.90;;;;;;5009261;28;20230;-61
2024/02/28 01:42:37;;;;;;;23.77;14.10;;;1.70;99.90;;;;;;5011727;28;20221;-61
2024/02/28 01:45:08;;;;;;;24.20;14.23;;;1.60;99.90;;;;;;5011166;28;20228;-61
2024/02/28 01:47:38;;;;;;;22.90;13.57;;;1.60;99.90;;;;;;5018381;28;20213;-61
2024/02/28 01:50:07;;;;;;;26.40;14.30;;;1.50;99.90;;;;;;5011476;28;20247;-61
2024/02/28 01:52:35;;;;;;;22.80;12.97;;;1.50;99.90;;;;;;5016073;28;20224;-61
2024/02/28 01:55:07;;;;;;;22.87;14.03;;;1.50;99.90;;;;;;5017353;28;20252;-62
2024/02/28 01:57:37;;;;;;;24.53;14.23;;;1.50;99.90;;;;;;5010069;28;20226;-61
2024/02/28 02:00:09;;;;;;;21.57;13.40;;;1.50;99.90;;;;;;5006183;28;20233;-61
2024/02/28 02:02:37;;;;;;;20.83;12.97;;;1.50;99.90;;;;;;5017282;28;20280;-61
2024/02/28 02:05:06;;;;;;;27.27;14.03;;;1.50;99.90;;;;;;5020049;28;20626;-60
2024/02/28 02:07:35;;;;;;;25.27;13.83;;;1.50;99.90;;;;;;4996394;28;20245;-61
2024/02/28 02:10:08;;;;;;;24.17;14.07;;;1.50;99.90;;;;;;4993990;28;20222;-60
2024/02/28 02:12:36;;;;;;;25.47;14.67;;;1.50;99.90;;;;;;5000235;28;20241;-60
2024/02/28 02:15:05;;;;;;;29.73;14.17;;;1.50;99.90;;;;;;5011657;28;20230;-60
2024/02/28 02:17:33;;;;;;;27.17;14.50;;;1.50;99.90;;;;;;5016305;28;20194;-60
2024/02/28 02:20:03;;;;;;;30.47;16.13;;;1.40;99.90;;;;;;5018570;28;20194;-61
2024/02/28 02:22:35;;;;;;;25.37;15.07;;;1.40;99.90;;;;;;5014944;28;20237;-61
2024/02/28 02:25:04;;;;;;;23.90;14.37;;;1.30;99.90;;;;;;5017474;28;20217;-60
2024/02/28 02:27:32;;;;;;;27.30;15.23;;;1.20;99.90;;;;;;5014870;28;20226;-60
2024/02/28 02:30:01;;;;;;;31.03;15.40;;;1.20;99.90;;;;;;5016487;28;20232;-61
2024/02/28 02:32:29;;;;;;;28.97;15.60;;;1.10;99.90;;;;;;5016393;28;20271;-61
2024/02/28 02:34:58;;;;;;;27.50;15.43;;;1.10;99.90;;;;;;5014467;28;20329;-63
2024/02/28 02:37:48;;;;;;;30.13;15.53;;;1.10;99.90;;;;;;5012303;28;20225;-60
2024/02/28 02:40:17;;;;;;;27.40;15.13;;;1.00;99.90;;;;;;5012659;28;20640;-60
2024/02/28 02:42:45;;;;;;;29.00;14.87;;;1.00;99.90;;;;;;5011554;28;20217;-61
2024/02/28 02:45:13;;;;;;;25.00;14.07;;;1.00;99.90;;;;;;5017338;28;20312;-60
2024/02/28 02:47:43;;;;;;;31.67;15.60;;;1.00;99.90;;;;;;5018313;28;20753;-60
2024/02/28 02:50:12;;;;;;;30.73;16.30;;;1.00;99.90;;;;;;5012687;28;20193;-61
2024/02/28 02:52:40;;;;;;;30.40;16.57;;;1.00;99.90;;;;;;5011756;28;20218;-61
2024/02/28 02:55:10;;;;;;;32.57;16.20;;;1.00;99.90;;;;;;5013686;28;20221;-60
2024/02/28 02:57:38;;;;;;;29.73;16.40;;;1.00;99.90;;;;;;5013053;28;20266;-61
2024/02/28 03:00:09;;;;;;;30.80;16.53;;;0.90;99.90;;;;;;5010289;28;20215;-61
2024/02/28 03:02:39;;;;;;;28.40;15.13;;;0.80;99.90;;;;;;5010788;28;20202;-61
2024/02/28 03:05:08;;;;;;;32.17;16.57;;;0.80;99.90;;;;;;5014798;28;20213;-61
2024/02/28 03:07:37;;;;;;;26.47;14.73;;;0.70;99.90;;;;;;5016889;28;20226;-61
2024/02/28 03:10:06;;;;;;;31.53;16.00;;;0.70;99.90;;;;;;5014956;28;20232;-60
2024/02/28 03:12:36;;;;;;;28.47;16.10;;;0.60;99.90;;;;;;5016456;28;20680;-61
2024/02/28 03:15:05;;;;;;;29.53;16.53;;;0.60;99.90;;;;;;5010772;28;20241;-61
2024/02/28 03:17:33;;;;;;;31.47;17.87;;;0.50;99.90;;;;;;5012921;28;20201;-61
2024/02/28 03:20:01;;;;;;;31.17;17.33;;;0.60;99.90;;;;;;5013158;28;20194;-62
2024/02/28 03:22:29;;;;;;;31.37;16.90;;;0.60;99.90;;;;;;5013385;28;20222;-60
2024/02/28 03:24:58;;;;;;;30.73;17.77;;;0.50;99.90;;;;;;5015476;28;20222;-60
2024/02/28 03:27:26;;;;;;;34.63;18.63;;;0.50;99.90;;;;;;5014569;28;20585;-61
2024/02/28 03:29:55;;;;;;;35.53;18.10;;;0.50;99.90;;;;;;5008687;28;20226;-60
2024/02/28 03:32:24;;;;;;;32.00;17.93;;;0.50;99.90;;;;;;4996447;28;20191;-61
2024/02/28 03:34:52;;;;;;;32.37;16.63;;;0.50;99.90;;;;;;5011482;28;20197;-61
2024/02/28 03:37:20;;;;;;;32.90;17.17;;;0.50;99.90;;;;;;5013174;28;20243;-61
2024/02/28 03:39:48;;;;;;;30.10;17.10;;;0.50;99.90;;;;;;5003825;28;20221;-60
2024/02/28 03:42:17;;;;;;;32.53;17.03;;;0.50;99.90;;;;;;5000626;28;20313;-61
2024/02/28 03:44:45;;;;;;;33.00;17.77;;;0.50;99.90;;;;;;5005883;28;20301;-61
2024/02/28 03:47:14;;;;;;;37.03;17.83;;;0.50;99.90;;;;;;5014195;28;20198;-61
2024/02/28 03:49:43;;;;;;;29.33;16.37;;;0.50;99.90;;;;;;5017896;28;20740;-61
2024/02/28 03:52:11;;;;;;;30.07;16.60;;;0.50;99.90;;;;;;5000490;28;20285;-60
2024/02/28 03:54:39;;;;;;;30.37;17.13;;;0.50;99.90;;;;;;5005992;28;20230;-61
2024/02/28 03:57:07;;;;;;;31.77;17.17;;;0.60;99.90;;;;;;5008834;28;20305;-61
2024/02/28 03:59:35;;;;;;;31.83;17.00;;;0.60;99.90;;;;;;4998429;28;20191;-60
2024/02/28 04:02:04;;;;;;;29.50;16.50;;;0.60;99.90;;;;;;5001019;28;20278;-61
2024/02/28 04:04:34;;;;;;;35.27;16.47;;;0.60;99.90;;;;;;4998850;28;20217;-60
2024/02/28 04:07:02;;;;;;;35.53;17.97;;;0.60;99.90;;;;;;4996634;28;20238;-61
2024/02/28 04:09:30;;;;;;;41.87;19.03;;;0.60;99.90;;;;;;4993747;28;20225;-61
2024/02/28 04:11:59;;;;;;;32.53;18.77;;;0.60;99.90;;;;;;4997813;28;20222;-61
2024/02/28 04:14:28;;;;;;;37.30;18.47;;;0.60;99.90;;;;;;4999325;28;20558;-61
2024/02/28 04:16:56;;;;;;;38.20;19.57;;;0.50;99.90;;;;;;4993497;28;20191;-62
2024/02/28 04:19:25;;;;;;;39.73;19.53;;;0.60;99.90;;;;;;4997384;28;20420;-61
2024/02/28 04:21:54;;;;;;;38.87;18.83;;;0.70;99.90;;;;;;4994511;28;20219;-62
2024/02/28 04:24:23;;;;;;;35.33;18.73;;;0.70;99.90;;;;;;4995736;28;20914;-62
2024/02/28 04:26:53;;;;;;;36.47;19.77;;;0.70;99.90;;;;;;4993175;28;20222;-62
2024/02/28 04:29:21;;;;;;;45.63;20.17;;;0.70;99.90;;;;;;4994791;28;20197;-61
2024/02/28 04:31:49;;;;;;;44.60;21.83;;;0.80;99.90;;;;;;4996095;28;20201;-62
2024/02/28 04:34:17;;;;;;;49.97;22.57;;;0.80;99.90;;;;;;4996268;28;20219;-62
2024/02/28 04:36:46;;;;;;;50.63;23.93;;;0.90;99.90;;;;;;5003475;28;20365;-61
2024/02/28 04:39:15;;;;;;;46.27;23.77;;;1.00;99.90;;;;;;4999590;28;20211;-62
2024/02/28 04:41:44;;;;;;;52.90;24.73;;;1.00;99.90;;;;;;4995469;28;20218;-61
2024/02/28 04:44:12;;;;;;;53.40;24.17;;;1.00;99.90;;;;;;4999961;28;20198;-62
2024/02/28 04:46:40;;;;;;;49.37;25.07;;;1.00;99.90;;;;;;4999151;28;21078;-62
2024/02/28 04:49:09;;;;;;;50.57;24.57;;;1.00;99.90;;;;;;4997408;28;20219;-61
2024/02/28 04:51:37;;;;;;;55.27;25.50;;;1.10;99.90;;;;;;4996410;28;20215;-61
2024/02/28 04:54:06;;;;;;;47.83;23.90;;;1.10;99.90;;;;;;5003459;28;20225;-61
2024/02/28 04:56:40;;;;;;;46.53;24.07;;;1.20;99.90;;;;;;5014661;28;20217;-62
2024/02/28 04:59:09;;;;;;;50.93;24.53;;;1.20;99.90;;;;;;5015157;28;20189;-62
2024/02/28 05:01:39;;;;;;;55.23;24.37;;;1.30;99.90;;;;;;5018670;28;20681;-62
2024/02/28 05:04:08;;;;;;;48.37;23.83;;;1.30;99.90;;;;;;5020818;28;20212;-62
2024/02/28 05:06:37;;;;;;;47.27;24.20;;;1.40;99.90;;;;;;5013818;28;20631;-62
2024/02/28 05:09:08;;;;;;;46.37;22.33;;;1.40;99.90;;;;;;5018706;28;20301;-62
2024/02/28 05:11:38;;;;;;;47.53;23.60;;;1.50;99.90;;;;;;5013678;28;20274;-62
2024/02/28 05:14:06;;;;;;;43.73;22.83;;;1.50;99.90;;;;;;5016812;28;20198;-62
2024/02/28 05:16:34;;;;;;;43.37;22.77;;;1.60;99.90;;;;;;5016553;28;20296;-62
2024/02/28 05:19:04;;;;;;;50.93;23.33;;;1.70;99.90;;;;;;5017474;28;20345;-62
2024/02/28 05:21:32;;;;;;;49.43;23.70;;;1.80;99.90;;;;;;5019564;28;20209;-62
2024/02/28 05:24:01;;;;;;;47.73;23.97;;;1.90;99.90;;;;;;5009177;28;20259;-62
2024/02/28 05:26:31;;;;;;;46.63;24.40;;;2.00;99.90;;;;;;5018344;28;20217;-62
2024/02/28 05:29:00;;;;;;;42.43;23.40;;;2.10;99.90;;;;;;5015785;28;20194;-62
2024/02/28 05:31:29;;;;;;;45.67;23.47;;;2.10;99.90;;;;;;5017760;28;20218;-62
2024/02/28 05:33:58;;;;;;;51.63;24.33;;;2.10;99.90;;;;;;5036206;28;20210;-62
2024/02/28 05:36:27;;;;;;;46.07;24.63;;;2.20;99.90;;;;;;5008640;28;20226;-62
2024/02/28 05:38:57;;;;;;;44.80;23.40;;;2.20;99.90;;;;;;4999154;28;20277;-62
2024/02/28 05:41:26;;;;;;;45.10;22.20;;;2.20;99.90;;;;;;4986671;28;20528;-62
2024/02/28 05:43:54;;;;;;;48.23;24.13;;;2.10;99.90;;;;;;4995823;28;20562;-62
2024/02/28 05:46:24;;;;;;;45.67;24.13;;;2.10;99.90;;;;;;4992019;28;20225;-62
2024/02/28 05:48:52;;;;;;;52.83;24.63;;;2.00;99.90;;;;;;4996048;28;20231;-62
2024/02/28 05:51:22;;;;;;;51.23;23.97;;;1.90;99.90;;;;;;4993698;28;20222;-62
2024/02/28 05:53:51;;;;;;;61.00;23.23;;;1.90;99.90;;;;;;4991827;28;20334;-62
2024/02/28 05:56:19;;;;;;;47.33;24.57;;;1.80;99.90;;;;;;4999331;28;20205;-62
2024/02/28 05:58:48;;;;;;;43.60;24.07;;;1.80;99.90;;;;;;4989491;28;20571;-62
2024/02/28 06:01:18;;;;;;;49.23;24.27;;;1.70;99.90;;;;;;4999792;28;20213;-62
2024/02/28 06:03:48;;;;;;;50.00;25.90;;;1.70;99.90;;;;;;4999220;28;20319;-63
2024/02/28 06:06:17;;;;;;;52.33;25.40;;;1.80;99.90;;;;;;4992318;28;20238;-62
2024/02/28 06:08:45;;;;;;;51.40;25.30;;;1.80;99.90;;;;;;4992137;28;20648;-62
2024/02/28 06:11:13;;;;;;;46.10;24.27;;;1.80;99.90;;;;;;4987255;28;20190;-62
2024/02/28 06:13:42;;;;;;;52.50;23.97;;;1.80;99.90;;;;;;4998709;28;20694;-61
2024/02/28 06:16:15;;;;;;;50.87;25.67;;;1.90;99.90;;;;;;4995655;28;20224;-62
2024/02/28 06:18:43;;;;;;;51.23;25.60;;;2.00;99.90;;;;;;4993875;28;20215;-62
2024/02/28 06:21:14;;;;;;;55.27;26.87;;;2.00;99.90;;;;;;5003895;28;20301;-62
2024/02/28 06:23:42;;;;;;;52.03;27.47;;;2.10;99.90;;;;;;4992234;28;20230;-62
2024/02/28 06:26:17;;;;;;;50.33;27.70;;;2.20;99.90;;;;;;4995241;28;20542;-62
2024/02/28 06:28:47;;;;;;;52.90;27.17;;;2.30;99.90;;;;;;5014747;28;20603;-63
2024/02/28 06:31:16;;;;;;;57.97;28.87;;;2.30;99.90;;;;;;5013617;28;20218;-61
2024/02/28 06:33:45;;;;;;;52.00;28.30;;;2.30;99.90;;;;;;5019995;28;20210;-61
2024/02/28 06:36:15;;;;;;;62.63;30.30;;;2.40;99.90;;;;;;5017208;28;20220;-62
2024/02/28 06:38:43;;;;;;;53.87;27.67;;;2.40;99.90;;;;;;5012241;28;20554;-62
2024/02/28 06:41:12;;;;;;;57.27;29.60;;;2.40;99.90;;;;;;5018792;28;20255;-61
2024/02/28 06:43:40;;;;;;;59.07;29.63;;;2.50;99.90;;;;;;5017605;28;20217;-60
2024/02/28 06:46:09;;;;;;;58.57;29.47;;;2.50;99.90;;;;;;5016089;28;20226;-61
2024/02/28 06:48:37;;;;;;;63.73;29.37;;;2.60;99.90;;;;;;5013257;28;20237;-61
2024/02/28 06:51:06;;;;;;;48.70;27.70;;;2.60;99.90;;;;;;5015050;28;20236;-62
2024/02/28 06:53:36;;;;;;;61.17;28.63;;;2.70;99.90;;;;;;5010028;28;20186;-61
2024/02/28 06:56:04;;;;;;;60.33;28.83;;;2.70;99.90;;;;;;5014764;28;20569;-62
2024/02/28 06:58:33;;;;;;;59.33;26.40;;;2.80;99.90;;;;;;5015580;28;20230;-61
2024/02/28 07:01:01;;;;;;;62.73;28.63;;;2.80;99.90;;;;;;5014069;28;20604;-61
2024/02/28 07:03:30;;;;;;;51.57;26.60;;;2.80;99.90;;;;;;5015468;28;20237;-62
2024/02/28 07:05:58;;;;;;;48.63;26.97;;;2.90;99.90;;;;;;5016203;28;20707;-61
2024/02/28 07:08:26;;;;;;;60.50;26.53;;;3.00;99.90;;;;;;5013240;28;20224;-62
2024/02/28 07:10:57;;;;;;;54.27;27.70;;;3.10;99.90;;;;;;5013001;28;20224;-62
2024/02/28 07:13:27;;;;;;;61.77;26.63;;;3.20;99.90;;;;;;4997563;28;20626;-61
2024/02/28 07:15:56;;;;;;;56.63;26.27;;;3.20;99.90;;;;;;4996311;28;20223;-61
2024/02/28 07:18:28;;;;;;;55.60;26.97;;;3.30;99.90;;;;;;5005141;28;20213;-62
2024/02/28 07:20:56;;;;;;;47.97;26.10;;;3.40;99.90;;;;;;5021006;28;20219;-61
2024/02/28 07:23:24;;;;;;;56.47;26.93;;;3.40;99.90;;;;;;5020002;28;20217;-62
2024/02/28 07:25:53;;;;;;;52.77;25.63;;;3.50;99.90;;;;;;5021606;28;20277;-61
2024/02/28 07:28:23;;;;;;;54.30;25.67;;;3.60;99.90;;;;;;5024886;28;20245;-61
2024/02/28 07:30:51;;;;;;;50.93;25.00;;;3.60;99.90;;;;;;5024023;28;20309;-61
2024/02/28 07:33:19;;;;;;;52.60;26.90;;;3.60;99.90;;;;;;5016075;28;20222;-62
2024/02/28 07:35:48;;;;;;;54.43;25.23;;;3.60;99.90;;;;;;5001378;28;20721;-62
2024/02/28 07:38:17;;;;;;;49.63;25.97;;;3.70;99.90;;;;;;4997754;28;20228;-62
2024/02/28 07:40:46;;;;;;;47.20;25.47;;;3.70;99.90;;;;;;4994621;28;20311;-61
2024/02/28 07:43:14;;;;;;;54.27;26.00;;;3.70;99.90;;;;;;5002554;28;20222;-62
2024/02/28 07:45:43;;;;;;;50.80;25.93;;;3.80;99.90;;;;;;5002594;28;20230;-61
2024/02/28 07:48:12;;;;;;;55.17;25.87;;;3.80;99.90;;;;;;5004593;28;20767;-62
2024/02/28 07:50:41;;;;;;;51.60;25.00;;;3.90;99.90;;;;;;5000729;28;20254;-62
2024/02/28 07:53:10;;;;;;;56.63;25.53;;;3.90;99.90;;;;;;5003737;28;20657;-62
2024/02/28 07:55:38;;;;;;;45.27;24.03;;;3.90;99.90;;;;;;5016723;28;20312;-62
2024/02/28 07:58:07;;;;;;;48.47;25.57;;;4.00;99.90;;;;;;5004334;28;20214;-62
2024/02/28 08:00:35;;;;;;;42.57;21.83;;;4.10;99.90;;;;;;5011377;28;20221;-62
2024/02/28 08:03:05;;;;;;;44.00;22.97;;;4.20;99.90;;;;;;5015531;28;20218;-62
2024/02/28 08:05:38;;;;;;;44.03;23.57;;;4.30;99.90;;;;;;5019470;28;20764;-62
2024/02/28 08:08:07;;;;;;;52.73;24.30;;;4.30;99.90;;;;;;5020733;28;20253;-62
2024/02/28 08:10:36;;;;;;;46.00;22.63;;;4.40;99.90;;;;;;5020007;28;20232;-62
2024/02/28 08:13:04;;;;;;;50.90;23.23;;;4.50;99.90;;;;;;5008723;28;20233;-62
2024/02/28 08:15:33;;;;;;;47.17;22.20;;;4.50;99.90;;;;;;5022425;28;20344;-61
2024/02/28 08:18:01;;;;;;;45.13;22.50;;;4.60;99.90;;;;;;5022414;28;20284;-61
2024/02/28 08:20:52;;;;;;;48.70;21.90;;;4.70;99.90;;;;;;5025208;28;20194;-62
2024/02/28 08:23:39;;;;;;;52.50;22.30;;;4.70;99.90;;;;;;5019875;28;20213;-61
2024/02/28 08:26:07;;;;;;;45.97;20.87;;;4.90;99.90;;;;;;5016813;28;20197;-61
2024/02/28 08:28:35;;;;;;;46.83;20.60;;;4.90;99.90;;;;;;5026512;28;20699;-61
2024/02/28 08:31:04;;;;;;;55.13;20.83;;;4.90;99.90;;;;;;5018739;28;20229;-60
2024/02/28 08:33:33;;;;;;;48.20;21.10;;;4.90;99.90;;;;;;5019331;28;20214;-61
2024/02/28 08:36:02;;;;;;;45.43;20.90;;;5.00;99.90;;;;;;5024733;28;20631;-60
2024/02/28 08:38:31;;;;;;;47.47;20.97;;;5.10;99.90;;;;;;5023420;28;20201;-60
2024/02/28 08:40:59;;;;;;;44.90;19.93;;;5.20;99.90;;;;;;5021933;28;20197;-61
2024/02/28 08:43:27;;;;;;;40.77;19.37;;;5.20;99.90;;;;;;5020646;28;20696;-60
2024/02/28 08:45:56;;;;;;;42.20;19.53;;;5.30;99.90;;;;;;5019199;28;20275;-60
2024/02/28 08:48:24;;;;;;;44.33;19.90;;;5.30;99.90;;;;;;5016403;28;20583;-61
2024/02/28 08:50:52;;;;;;;39.27;19.03;;;5.40;99.90;;;;;;5025536;28;20316;-61
2024/02/28 08:53:22;;;;;;;43.80;19.83;;;5.40;99.90;;;;;;5020184;28;20205;-61
2024/02/28 08:55:50;;;;;;;38.10;19.13;;;5.40;99.90;;;;;;5020721;28;20217;-60
2024/02/28 08:58:18;;;;;;;40.17;19.83;;;5.50;99.90;;;;;;5017900;28;20224;-62
2024/02/28 09:00:47;;;;;;;43.00;17.70;;;5.50;99.90;;;;;;5021436;28;20599;-61
2024/02/28 09:03:15;;;;;;;37.37;17.77;;;5.60;99.90;;;;;;5018385;28;20213;-61
2024/02/28 09:05:43;;;;;;;33.33;17.70;;;5.70;99.90;;;;;;5020896;28;20292;-61
2024/02/28 09:08:12;;;;;;;36.07;17.70;;;5.80;99.90;;;;;;5017384;28;20229;-61
2024/02/28 09:10:43;;;;;;;32.50;16.83;;;6.00;99.90;;;;;;5010265;28;20245;-61
2024/02/28 09:13:12;;;;;;;34.30;16.03;;;6.20;99.90;;;;;;5025632;28;20321;-60
2024/02/28 09:15:40;;;;;;;36.27;15.67;;;6.30;99.90;;;;;;5017580;28;20225;-60
2024/02/28 09:18:09;;;;;;;37.83;16.30;;;6.40;99.90;;;;;;5021709;28;20375;-60
2024/02/28 09:20:38;;;;;;;28.70;15.97;;;6.50;99.90;;;;;;5018729;28;20198;-61
2024/02/28 09:23:06;;;;;;;29.03;15.57;;;6.60;99.90;;;;;;5024373;28;20197;-61
2024/02/28 09:25:35;;;;;;;33.70;15.13;;;6.70;99.90;;;;;;5017857;28;20222;-61
2024/02/28 09:28:05;;;;;;;21.93;14.13;;;6.90;99.90;;;;;;5016220;28;20226;-62
2024/02/28 09:30:33;;;;;;;28.43;14.20;;;7.00;99.90;;;;;;5018216;28;20227;-61
2024/02/28 09:33:13;;;;;;;25.83;14.47;;;7.10;99.90;;;;;;5016985;28;20708;-60
2024/02/28 09:35:41;;;;;;;20.27;13.57;;;7.30;99.90;;;;;;5019307;28;20213;-60
2024/02/28 09:38:10;;;;;;;22.13;13.17;;;7.40;99.90;;;;;;5014796;28;20199;-61
2024/02/28 09:40:38;;;;;;;26.33;13.80;;;7.60;99.90;;;;;;5015293;28;20577;-61
2024/02/28 09:43:16;;;;;;;20.70;12.53;;;7.70;99.90;;;;;;5017050;28;20602;-61
2024/02/28 09:45:44;;;;;;;19.43;11.77;;;7.90;99.90;;;;;;5013050;28;20653;-61
2024/02/28 09:48:17;;;;;;;20.87;10.87;;;8.00;99.90;;;;;;5017253;28;20272;-61
2024/02/28 09:50:46;;;;;;;22.57;11.67;;;8.10;99.90;;;;;;5012698;28;20233;-62
2024/02/28 09:53:15;;;;;;;18.67;11.60;;;8.30;99.90;;;;;;5018327;28;20221;-61
2024/02/28 09:55:43;;;;;;;15.97;11.17;;;8.40;99.90;;;;;;5019767;28;20243;-61
2024/02/28 09:58:13;;;;;;;17.23;11.27;;;8.50;99.90;;;;;;5018805;28;20229;-61
2024/02/28 10:00:43;;;;;;;18.10;10.97;;;8.60;99.90;;;;;;5013866;28;20542;-61
2024/02/28 10:03:15;;;;;;;18.97;11.03;;;8.70;99.90;;;;;;5015968;28;20615;-61
2024/02/28 10:05:44;;;;;;;21.53;11.00;;;8.80;99.90;;;;;;5016345;28;20232;-61
2024/02/28 10:08:13;;;;;;;20.30;10.93;;;8.70;99.90;;;;;;5019884;28;20271;-61
2024/02/28 10:10:47;;;;;;;20.77;11.87;;;8.70;99.90;;;;;;5015690;28;20541;-61
2024/02/28 10:13:17;;;;;;;17.60;11.47;;;8.60;99.90;;;;;;5016233;28;20581;-61
2024/02/28 10:15:45;;;;;;;19.47;12.00;;;8.50;99.90;;;;;;5020524;28;20221;-61
2024/02/28 10:18:14;;;;;;;19.60;11.30;;;8.40;99.90;;;;;;5021299;28;20301;-61
2024/02/28 10:20:42;;;;;;;17.03;11.53;;;8.50;99.90;;;;;;5018695;28;20225;-61
2024/02/28 10:23:10;;;;;;;18.87;11.83;;;8.40;99.90;;;;;;5017331;28;20198;-61
2024/02/28 10:25:44;;;;;;;18.50;12.50;;;8.40;99.90;;;;;;5015538;28;20577;-61
2024/02/28 10:28:26;;;;;;;18.40;11.30;;;8.50;99.90;;;;;;5007632;28;20280;-61
2024/02/28 10:30:55;;;;;;;17.90;11.23;;;8.50;99.90;;;;;;5015557;28;20317;-61
2024/02/28 10:33:28;;;;;;;23.53;12.17;;;8.60;99.90;;;;;;5020433;28;20213;-61
2024/02/28 10:35:57;;;;;;;24.23;12.43;;;8.60;99.90;;;;;;5017003;28;20221;-61
2024/02/28 10:38:27;;;;;;;18.13;11.53;;;8.70;99.90;;;;;;5015365;28;20280;-61
2024/02/28 10:40:56;;;;;;;19.93;11.10;;;8.70;99.90;;;;;;5015155;28;20236;-61
2024/02/28 10:43:30;;;;;;;18.90;10.90;;;8.80;99.90;;;;;;5016785;28;20287;-61
2024/02/28 10:45:59;;;;;;;16.07;10.20;;;8.90;99.90;;;;;;5021170;28;20218;-61
2024/02/28 10:48:49;;;;;;;16.10;10.40;;;8.90;99.90;;;;;;5017855;28;20221;-61
2024/02/28 10:51:24;;;;;;;15.47;10.50;;;8.90;99.90;;;;;;5011704;28;20312;-61
2024/02/28 10:54:03;;;;;;;20.87;9.87;;;8.90;99.90;;;;;;5013948;28;20275;-62
2024/02/28 10:56:32;;;;;;;16.27;10.93;;;8.80;99.90;;;;;;5013309;28;20234;-61
2024/02/28 10:59:03;;;;;;;16.93;11.17;;;8.80;99.90;;;;;;5018584;28;20194;-61
2024/02/28 11:01:31;;;;;;;16.33;10.73;;;8.80;99.90;;;;;;5018232;28;20268;-61
2024/02/28 11:04:00;;;;;;;14.90;9.60;;;8.80;99.90;;;;;;5019668;28;20228;-61
2024/02/28 11:06:28;;;;;;;19.70;9.57;;;8.70;99.90;;;;;;5017636;28;20217;-61
2024/02/28 11:08:59;;;;;;;14.97;9.87;;;8.80;99.90;;;;;;5018433;28;20260;-61
2024/02/28 11:11:32;;;;;;;18.17;10.10;;;8.90;99.90;;;;;;5013682;28;20194;-60
2024/02/28 11:14:02;;;;;;;16.07;9.73;;;9.20;99.90;;;;;;5010321;28;20197;-60
2024/02/28 11:16:31;;;;;;;14.07;9.50;;;9.30;99.90;;;;;;5018190;28;20217;-61
2024/02/28 11:19:00;;;;;;;12.67;9.87;;;9.40;99.90;;;;;;5003816;28;20221;-60
2024/02/28 11:21:29;;;;;;;15.60;9.37;;;9.60;99.90;;;;;;4999582;28;20215;-60
2024/02/28 11:24:03;;;;;;;14.33;9.03;;;9.80;99.90;;;;;;5001556;28;20229;-60
2024/02/28 11:26:31;;;;;;;14.50;9.30;;;9.90;99.90;;;;;;4993071;28;20293;-60
2024/02/28 11:29:01;;;;;;;13.97;9.50;;;10.10;99.90;;;;;;4994850;28;20293;-60
2024/02/28 11:31:31;;;;;;;14.57;8.93;;;10.30;99.90;;;;;;4993310;28;20222;-61
2024/02/28 11:34:00;;;;;;;15.20;9.43;;;10.50;99.90;;;;;;5000831;28;20226;-60
2024/02/28 11:36:28;;;;;;;16.43;8.80;;;10.50;99.90;;;;;;4988957;28;20219;-61
2024/02/28 11:38:58;;;;;;;15.27;9.33;;;10.20;99.90;;;;;;4996644;28;20226;-60
2024/02/28 11:41:27;;;;;;;15.47;9.57;;;10.30;99.90;;;;;;4996176;28;20203;-60
2024/02/28 11:43:56;;;;;;;14.90;9.10;;;10.30;99.90;;;;;;4995722;28;20295;-61
2024/02/28 11:46:26;;;;;;;16.90;10.07;;;10.30;99.90;;;;;;4995274;28;20222;-61
2024/02/28 11:48:55;;;;;;;11.47;8.97;;;10.10;99.90;;;;;;5010548;28;20222;-61
2024/02/28 11:51:24;;;;;;;13.53;8.57;;;10.10;99.90;;;;;;5019670;28;20240;-61
2024/02/28 11:53:52;;;;;;;16.40;9.07;;;10.10;99.90;;;;;;5020006;28;20585;-61
2024/02/28 11:56:21;;;;;;;13.70;9.20;;;10.00;99.90;;;;;;5012850;28;20213;-61
2024/02/28 11:58:52;;;;;;;12.80;8.70;;;10.00;99.90;;;;;;5016598;28;20194;-61
2024/02/28 12:01:32;;;;;;;9.43;8.07;;;10.10;99.90;;;;;;5016026;28;20236;-61
2024/02/28 12:04:04;;;;;;;12.70;8.17;;;10.00;99.90;;;;;;5015510;28;20226;-60
2024/02/28 12:06:32;;;;;;;14.03;9.33;;;10.10;99.90;;;;;;5014526;28;20221;-60
2024/02/28 12:09:01;;;;;;;14.60;8.37;;;10.40;99.90;;;;;;5021462;28;20245;-61
2024/02/28 12:11:31;;;;;;;14.17;7.87;;;10.50;99.90;;;;;;5016319;28;20618;-60
2024/02/28 12:13:59;;;;;;;13.67;7.60;;;10.50;99.90;;;;;;5018855;28;20186;-60
2024/02/28 12:16:28;;;;;;;12.17;7.97;;;10.40;99.90;;;;;;5016752;28;20221;-61
2024/02/28 12:18:56;;;;;;;10.40;7.60;;;10.30;99.90;;;;;;5016239;28;20591;-61
2024/02/28 12:21:26;;;;;;;9.70;7.50;;;10.30;99.90;;;;;;5021175;28;20225;-61
2024/02/28 12:23:54;;;;;;;12.27;7.97;;;10.20;99.90;;;;;;5020931;28;20235;-60
2024/02/28 12:26:23;;;;;;;10.73;8.30;;;10.20;99.90;;;;;;5014077;28;20214;-60
2024/02/28 12:28:51;;;;;;;8.43;7.37;;;10.30;99.90;;;;;;5022897;28;20213;-61
2024/02/28 12:31:21;;;;;;;10.40;6.73;;;10.30;99.90;;;;;;5018737;28;20213;-61
2024/02/28 12:33:49;;;;;;;11.57;5.93;;;10.30;99.90;;;;;;5017264;28;20268;-61
2024/02/28 12:36:18;;;;;;;12.37;6.17;;;10.20;99.90;;;;;;5029224;28;20230;-61
2024/02/28 12:38:47;;;;;;;11.50;6.77;;;10.10;99.90;;;;;;5015830;28;20308;-60
2024/02/28 12:41:17;;;;;;;8.07;6.20;;;10.10;99.90;;;;;;5021226;28;20217;-61
2024/02/28 12:43:45;;;;;;;9.43;6.50;;;10.20;99.90;;;;;;5003449;28;20214;-60
2024/02/28 12:46:13;;;;;;;9.67;6.37;;;10.30;99.90;;;;;;5002789;28;20227;-60
2024/02/28 12:48:42;;;;;;;7.53;6.30;;;10.40;99.90;;;;;;4995655;28;20222;-61